createdAt,value
2023-03-26T00:01:52.843Z,96778.74
2023-03-26T00:04:55.818Z,96771.74
2023-03-26T00:07:59.097Z,96774.23
2023-03-26T00:11:02.966Z,96775.65
2023-03-26T00:14:05.959Z,96769.03
2023-03-26T00:17:08.774Z,96771.39
2023-03-26T00:20:13.043Z,96764.23
2023-03-26T00:23:15.979Z,96760.38
2023-03-26T00:26:18.963Z,96757.45
2023-03-26T00:29:28.072Z,96757.50
2023-03-26T00:32:31.544Z,96758.44
2023-03-26T00:35:38.807Z,96757.52
2023-03-26T00:38:43.036Z,96757.89
2023-03-26T00:41:45.971Z,96752.88
2023-03-26T00:44:51.293Z,96750.52
2023-03-26T00:47:54.177Z,96752.30
2023-03-26T00:50:57.917Z,96751.29
2023-03-26T00:54:00.918Z,96746.48
2023-03-26T00:57:06.966Z,96741.38
2023-03-26T01:00:15.339Z,96736.86
2023-03-26T01:03:27.547Z,96734.02
2023-03-26T01:06:36.199Z,96727.05
2023-03-26T01:09:50.467Z,96728.34
2023-03-26T01:12:53.720Z,96722.54
2023-03-26T01:15:57.948Z,96718.63
2023-03-26T01:19:01.013Z,96720.38
2023-03-26T01:22:05.791Z,96722.73
2023-03-26T01:25:09.687Z,96720.83
2023-03-26T01:28:13.710Z,96724.10
2023-03-26T01:31:21.900Z,96717.01
2023-03-26T01:34:52.425Z,96711.65
2023-03-26T01:38:13.551Z,96704.69
2023-03-26T01:41:50.933Z,96708.07
2023-03-26T01:45:08.247Z,96704.58
2023-03-26T01:48:12.348Z,96705.75
2023-03-26T01:51:27.285Z,96704.04
2023-03-26T01:54:31.903Z,96712.23
2023-03-26T01:57:38.112Z,96706.91
2023-03-26T02:01:06.022Z,96712.33
2023-03-26T02:04:27.076Z,96705.41
2023-03-26T02:07:53.142Z,96701.28
2023-03-26T02:10:58.760Z,96700.80
2023-03-26T02:14:01.842Z,96701.16
2023-03-26T02:17:05.120Z,96702.19
2023-03-26T02:20:10.563Z,96695.98
2023-03-26T02:23:13.351Z,96693.88
2023-03-26T02:26:19.478Z,96690.80
2023-03-26T02:29:22.391Z,96686.45
2023-03-26T02:32:26.731Z,96685.05
2023-03-26T02:35:30.970Z,96690.86
2023-03-26T02:38:35.319Z,96688.54
2023-03-26T02:41:38.802Z,96690.25
2023-03-26T02:44:41.973Z,96684.95
2023-03-26T02:47:46.273Z,96684.81
2023-03-26T02:50:50.389Z,96691.44
2023-03-26T02:53:53.866Z,96689.61
2023-03-26T02:56:56.890Z,96679.02
2023-03-26T02:59:59.733Z,96675.84
2023-03-26T03:03:04.594Z,96672.60
2023-03-26T03:06:09.165Z,96667.21
2023-03-26T03:09:13.126Z,96670.46
2023-03-26T03:12:15.927Z,96671.63
2023-03-26T03:15:18.908Z,96674.55
2023-03-26T03:18:22.228Z,96681.54
2023-03-26T03:21:27.679Z,96683.92
2023-03-26T03:24:33.955Z,96682.41
2023-03-26T03:27:39.377Z,96672.79
2023-03-26T03:30:42.245Z,96672.58
2023-03-26T03:33:46.602Z,96675.66
2023-03-26T03:36:50.198Z,96676.09
2023-03-26T03:39:53.088Z,96676.57
2023-03-26T03:42:56.028Z,96680.35
2023-03-26T03:46:00.049Z,96682.45
2023-03-26T03:49:03.684Z,96685.49
2023-03-26T03:52:07.116Z,96688.71
2023-03-26T03:55:10.724Z,96696.18
2023-03-26T03:58:14.815Z,96693.63
2023-03-26T04:01:18.830Z,96687.73
2023-03-26T04:04:22.240Z,96689.36
2023-03-26T04:07:25.964Z,96693.05
2023-03-26T04:10:28.778Z,96693.13
2023-03-26T04:13:31.588Z,96688.83
2023-03-26T04:16:34.587Z,96690.24
2023-03-26T04:19:37.660Z,96683.75
2023-03-26T04:22:41.203Z,96683.98
2023-03-26T04:25:54.186Z,96679.60
2023-03-26T04:29:02.781Z,96682.92
2023-03-26T04:32:08.349Z,96691.73
2023-03-26T04:35:16.777Z,96692.56
2023-03-26T04:38:19.727Z,96691.63
2023-03-26T04:41:22.658Z,96689.78
2023-03-26T04:44:25.522Z,96683.89
2023-03-26T04:47:29.173Z,96688.48
2023-03-26T04:50:32.017Z,96691.16
2023-03-26T04:53:35.963Z,96694.12
2023-03-26T04:56:46.754Z,96699.64
2023-03-26T04:59:50.280Z,96698.47
2023-03-26T05:02:56.264Z,96689.94
2023-03-26T05:06:00.216Z,96699.08
2023-03-26T05:09:03.360Z,96695.59
2023-03-26T05:12:06.343Z,96690.42
2023-03-26T05:15:11.607Z,96691.02
2023-03-26T05:18:14.519Z,96695.85
2023-03-26T05:21:17.467Z,96697.61
2023-03-26T05:24:20.898Z,96698.33
2023-03-26T05:27:23.745Z,96692.33
2023-03-26T05:30:26.667Z,96686.71
2023-03-26T05:33:30.166Z,96689.84
2023-03-26T05:36:33.508Z,96689.27
2023-03-26T05:39:36.540Z,96687.52
2023-03-26T05:42:39.997Z,96688.47
2023-03-26T05:45:42.883Z,96692.91
2023-03-26T05:48:45.890Z,96694.86
2023-03-26T05:51:48.716Z,96692.61
2023-03-26T05:54:51.565Z,96694.05
2023-03-26T05:57:54.407Z,96696.33
2023-03-26T06:01:09.414Z,96694.55
2023-03-26T06:04:13.774Z,96698.00
2023-03-26T06:07:18.178Z,96698.79
2023-03-26T06:10:21.025Z,96704.86
2023-03-26T06:13:23.791Z,96706.16
2023-03-26T06:16:27.516Z,96705.09
2023-03-26T06:19:30.852Z,96704.67
2023-03-26T06:22:33.689Z,96711.82
2023-03-26T06:25:37.322Z,96713.23
2023-03-26T06:28:40.555Z,96710.65
2023-03-26T06:31:43.504Z,96707.81
2023-03-26T06:34:46.408Z,96711.89
2023-03-26T06:37:49.283Z,96713.05
2023-03-26T06:40:52.340Z,96716.27
2023-03-26T06:43:55.853Z,96718.89
2023-03-26T06:46:58.787Z,96714.23
2023-03-26T06:50:01.801Z,96711.02
2023-03-26T06:53:04.710Z,96706.75
2023-03-26T06:56:09.221Z,96708.21
2023-03-26T06:59:12.141Z,96699.98
2023-03-26T07:02:15.017Z,96699.01
2023-03-26T07:05:18.206Z,96698.05
2023-03-26T07:08:21.365Z,96690.62
2023-03-26T07:11:25.673Z,96686.91
2023-03-26T07:14:30.678Z,96684.20
2023-03-26T07:17:33.551Z,96690.77
2023-03-26T07:20:36.928Z,96692.20
2023-03-26T07:23:40.132Z,96689.54
2023-03-26T07:26:55.010Z,96687.64
2023-03-26T07:30:22.616Z,96690.59
2023-03-26T07:33:30.665Z,96694.05
2023-03-26T07:36:49.113Z,96694.28
2023-03-26T07:40:20.363Z,96691.02
2023-03-26T07:43:55.474Z,96693.56
2023-03-26T07:47:02.474Z,96698.29
2023-03-26T07:50:06.365Z,96698.72
2023-03-26T07:53:10.001Z,96702.35
2023-03-26T07:56:27.177Z,96704.45
2023-03-26T07:59:49.945Z,96701.61
2023-03-26T08:03:38.331Z,96701.98
2023-03-26T08:06:49.371Z,96700.19
2023-03-26T08:10:20.175Z,96694.43
2023-03-26T08:13:31.700Z,96696.23
2023-03-26T08:16:48.863Z,96690.49
2023-03-26T08:19:51.714Z,96681.20
2023-03-26T08:23:07.295Z,96684.36
2023-03-26T08:26:13.812Z,96678.23
2023-03-26T08:29:54.893Z,96678.05
2023-03-26T08:33:13.213Z,96678.05
2023-03-26T08:36:16.591Z,96674.51
2023-03-26T08:39:22.339Z,96676.63
2023-03-26T08:43:01.081Z,96671.27
2023-03-26T08:46:51.717Z,96666.55
2023-03-26T08:50:19.005Z,96659.40
2023-03-26T08:54:04.056Z,96656.45
2023-03-26T08:57:15.836Z,96663.54
2023-03-26T09:00:56.768Z,96661.59
2023-03-26T09:04:18.868Z,96661.80
2023-03-26T09:08:06.175Z,96658.81
2023-03-26T09:11:18.773Z,96649.08
2023-03-26T09:14:39.981Z,96646.95
2023-03-26T09:18:08.066Z,96646.30
2023-03-26T09:21:39.066Z,96650.89
2023-03-26T09:25:15.578Z,96640.77
2023-03-26T09:28:43.816Z,96638.92
2023-03-26T09:32:27.981Z,96635.61
2023-03-26T09:35:59.141Z,96636.71
2023-03-26T09:39:40.700Z,96635.27
2023-03-26T09:42:46.253Z,96628.89
2023-03-26T09:45:54.980Z,96630.05
2023-03-26T09:49:25.787Z,96623.94
2023-03-26T09:53:08.708Z,96620.66
2023-03-26T09:56:33.818Z,96616.95
2023-03-26T10:00:21.046Z,96627.05
2023-03-26T10:03:38.562Z,96623.38
2023-03-26T10:06:58.182Z,96622.34
2023-03-26T10:10:31.881Z,96620.73
2023-03-26T10:14:00.438Z,96611.06
2023-03-26T10:17:35.891Z,96612.58
2023-03-26T10:21:01.827Z,96604.28
2023-03-26T10:24:22.911Z,96605.48
2023-03-26T10:27:52.622Z,96593.68
2023-03-26T10:31:09.252Z,96589.78
2023-03-26T10:34:31.641Z,96589.20
2023-03-26T10:38:02.840Z,96580.46
2023-03-26T10:42:07.061Z,96583.98
2023-03-26T10:45:30.908Z,96579.43
2023-03-26T10:48:48.926Z,96583.48
2023-03-26T10:52:09.436Z,96579.61
2023-03-26T10:55:31.547Z,96572.05
2023-03-26T10:58:48.338Z,96569.29
2023-03-26T11:02:29.236Z,96565.61
2023-03-26T11:05:55.980Z,96567.21
2023-03-26T11:09:27.302Z,96568.91
2023-03-26T11:12:46.172Z,96568.17
2023-03-26T11:16:20.429Z,96564.96
2023-03-26T11:19:36.957Z,96563.52
2023-03-26T11:22:52.014Z,96561.95
2023-03-26T11:26:14.783Z,96563.79
2023-03-26T11:29:31.367Z,96552.98
2023-03-26T11:32:53.780Z,96552.25
2023-03-26T11:36:02.023Z,96552.52
2023-03-26T11:39:13.751Z,96547.14
2023-03-26T11:42:21.486Z,96546.48
2023-03-26T11:45:27.889Z,96545.93
2023-03-26T11:48:41.048Z,96543.12
2023-03-26T11:51:47.972Z,96543.14
2023-03-26T11:54:50.934Z,96534.30
2023-03-26T11:57:57.243Z,96532.87
2023-03-26T12:01:04.992Z,96527.15
2023-03-26T12:04:13.826Z,96515.66
2023-03-26T12:07:22.471Z,96503.59
2023-03-26T12:10:38.430Z,96501.79
2023-03-26T12:13:46.038Z,96491.36
2023-03-26T12:17:11.828Z,96487.39
2023-03-26T12:20:32.419Z,96485.52
2023-03-26T12:23:54.090Z,96480.64
2023-03-26T12:27:02.212Z,96475.61
2023-03-26T12:30:21.311Z,96480.99
2023-03-26T12:33:35.339Z,96473.05
2023-03-26T12:36:39.312Z,96469.57
2023-03-26T12:40:07.208Z,96462.50
2023-03-26T12:44:49.556Z,96454.81
2023-03-26T12:47:59.262Z,96449.55
2023-03-26T12:51:03.043Z,96443.88
2023-03-26T12:54:37.179Z,96435.14
2023-03-26T12:58:28.576Z,96428.60
2023-03-26T13:01:37.748Z,96426.04
2023-03-26T13:05:02.333Z,96423.91
2023-03-26T13:08:46.706Z,96416.89
2023-03-26T13:12:20.579Z,96416.05
2023-03-26T13:15:34.797Z,96413.05
2023-03-26T13:18:55.974Z,96410.55
2023-03-26T13:22:01.851Z,96402.34
2023-03-26T13:25:23.068Z,96400.60
2023-03-26T13:28:54.020Z,96399.84
2023-03-26T13:32:25.254Z,96398.67
2023-03-26T13:35:37.216Z,96396.29
2023-03-26T13:38:58.900Z,96395.11
2023-03-26T13:42:38.244Z,96391.80
2023-03-26T13:45:56.214Z,96390.77
2023-03-26T13:49:12.018Z,96389.80
2023-03-26T13:52:22.792Z,96387.23
2023-03-26T13:55:40.207Z,96377.34
2023-03-26T13:59:08.401Z,96371.83
2023-03-26T14:02:20.496Z,96372.68
2023-03-26T14:05:36.217Z,96376.05
2023-03-26T14:08:45.005Z,96377.63
2023-03-26T14:11:58.333Z,96380.62
2023-03-26T14:15:04.399Z,96380.46
2023-03-26T14:18:35.939Z,96374.65
2023-03-26T14:21:38.812Z,96371.01
2023-03-26T14:25:10.854Z,96372.77
2023-03-26T14:28:51.818Z,96368.16
2023-03-26T14:32:00.722Z,96362.27
2023-03-26T14:35:28.904Z,96358.75
2023-03-26T14:38:56.813Z,96358.06
2023-03-26T14:42:07.755Z,96352.27
2023-03-26T14:45:35.587Z,96348.76
2023-03-26T14:49:01.388Z,96350.92
2023-03-26T14:52:14.079Z,96347.42
2023-03-26T14:55:29.465Z,96345.96
2023-03-26T14:59:03.081Z,96340.80
2023-03-26T15:03:03.211Z,96345.71
2023-03-26T15:06:26.597Z,96341.52
2023-03-26T15:09:29.302Z,96337.34
2023-03-26T15:12:54.766Z,96338.55
2023-03-26T15:16:35.188Z,96333.59
2023-03-26T15:19:56.934Z,96324.20
2023-03-26T15:23:18.360Z,96328.08
2023-03-26T15:26:53.025Z,96321.20
2023-03-26T15:30:33.680Z,96316.35
2023-03-26T15:33:55.080Z,96317.10
2023-03-26T15:37:48.325Z,96316.84
2023-03-26T15:41:05.646Z,96314.23
2023-03-26T15:44:43.761Z,96314.25
2023-03-26T15:47:57.475Z,96311.97
2023-03-26T15:51:28.665Z,96313.61
2023-03-26T15:54:52.130Z,96313.69
2023-03-26T15:58:04.046Z,96312.70
2023-03-26T16:01:34.779Z,96308.38
2023-03-26T16:04:50.370Z,96306.83
2023-03-26T16:08:04.507Z,96300.39
2023-03-26T16:11:12.791Z,96297.11
2023-03-26T16:14:23.917Z,96299.67
2023-03-26T16:17:27.115Z,96298.14
2023-03-26T16:20:34.687Z,96300.45
2023-03-26T16:23:47.763Z,96299.63
2023-03-26T16:27:01.393Z,96296.64
2023-03-26T16:30:09.711Z,96299.27
2023-03-26T16:33:16.055Z,96296.72
2023-03-26T16:36:26.177Z,96298.70
2023-03-26T16:39:42.384Z,96298.63
2023-03-26T16:43:10.439Z,96297.80
2023-03-26T16:46:52.929Z,96294.34
2023-03-26T16:50:14.268Z,96291.27
2023-03-26T16:53:29.980Z,96289.40
2023-03-26T16:56:54.973Z,96290.13
2023-03-26T17:00:24.710Z,96287.54
2023-03-26T17:03:45.215Z,96290.70
2023-03-26T17:07:18.422Z,96292.05
2023-03-26T17:10:46.792Z,96291.10
2023-03-26T17:14:04.865Z,96298.13
2023-03-26T17:17:43.268Z,96300.70
2023-03-26T17:21:24.195Z,96304.22
2023-03-26T17:24:30.662Z,96304.85
2023-03-26T17:27:50.166Z,96301.17
2023-03-26T17:30:53.844Z,96301.21
2023-03-26T17:34:55.602Z,96301.29
2023-03-26T17:37:58.637Z,96313.05
2023-03-26T17:41:01.606Z,96312.88
2023-03-26T17:44:38.142Z,96312.65
2023-03-26T17:47:43.800Z,96312.95
2023-03-26T17:50:59.211Z,96315.15
2023-03-26T17:54:03.036Z,96310.73
2023-03-26T17:57:40.309Z,96311.70
2023-03-26T18:00:48.133Z,96312.77
2023-03-26T18:03:54.862Z,96309.40
2023-03-26T18:07:14.360Z,96310.11
2023-03-26T18:10:36.437Z,96300.35
2023-03-26T18:14:04.242Z,96302.70
2023-03-26T18:17:07.445Z,96304.08
2023-03-26T18:20:20.851Z,96307.38
2023-03-26T18:23:30.241Z,96314.60
2023-03-26T18:26:37.703Z,96310.67
2023-03-26T18:29:47.066Z,96309.69
2023-03-26T18:33:00.783Z,96308.23
2023-03-26T18:36:04.338Z,96309.73
2023-03-26T18:39:13.451Z,96305.32
2023-03-26T18:42:24.646Z,96305.60
2023-03-26T18:45:36.322Z,96307.77
2023-03-26T18:48:39.640Z,96305.59
2023-03-26T18:51:56.245Z,96307.40
2023-03-26T18:55:02.710Z,96307.02
2023-03-26T18:58:27.829Z,96308.12
2023-03-26T19:01:33.390Z,96301.77
2023-03-26T19:04:37.421Z,96301.47
2023-03-26T19:07:40.993Z,96298.42
2023-03-26T19:10:47.701Z,96294.55
2023-03-26T19:13:59.848Z,96288.86
2023-03-26T19:17:07.144Z,96284.86
2023-03-26T19:20:22.623Z,96289.02
2023-03-26T19:23:33.090Z,96278.89
2023-03-26T19:26:36.830Z,96272.11
2023-03-26T19:29:41.863Z,96272.73
2023-03-26T19:32:53.828Z,96266.25
2023-03-26T19:36:05.387Z,96256.73
2023-03-26T19:39:14.025Z,96248.58
2023-03-26T19:42:43.031Z,96248.05
2023-03-26T19:46:00.294Z,96248.23
2023-03-26T19:49:04.540Z,96244.21
2023-03-26T19:52:16.149Z,96236.84
2023-03-26T19:55:24.180Z,96231.52
2023-03-26T19:58:27.500Z,96227.58
2023-03-26T20:04:34.747Z,96225.14
2023-03-26T20:07:39.418Z,96218.69
2023-03-26T20:10:50.012Z,96212.59
2023-03-26T20:13:54.514Z,96208.67
2023-03-26T20:16:57.566Z,96204.48
2023-03-26T20:20:00.386Z,96194.27
2023-03-26T20:23:03.933Z,96177.98
2023-03-26T20:26:12.138Z,96182.30
2023-03-26T20:29:15.918Z,96178.67
2023-03-26T20:32:24.237Z,96177.16
2023-03-26T20:35:37.713Z,96171.42
2023-03-26T20:38:41.649Z,96166.82
2023-03-26T20:41:47.265Z,96157.80
2023-03-26T20:44:50.170Z,96151.84
2023-03-26T20:47:54.275Z,96147.73
2023-03-26T20:50:57.183Z,96147.34
2023-03-26T20:54:00.722Z,96144.05
2023-03-26T20:57:03.907Z,96138.64
2023-03-26T21:00:23.542Z,96132.69
2023-03-26T21:03:26.427Z,96120.27
2023-03-26T21:06:29.334Z,96119.19
2023-03-26T21:09:34.256Z,96124.89
2023-03-26T21:12:47.350Z,96127.90
2023-03-26T21:15:50.539Z,96134.23
2023-03-26T21:18:53.820Z,96131.67
2023-03-26T21:22:15.455Z,96131.94
2023-03-26T21:25:21.021Z,96130.60
2023-03-26T21:28:39.793Z,96124.14
2023-03-26T21:31:46.822Z,96123.54
2023-03-26T21:34:58.787Z,96122.98
2023-03-26T21:38:05.265Z,96114.52
2023-03-26T21:41:25.896Z,96115.02
2023-03-26T21:44:28.980Z,96110.48
2023-03-26T21:47:32.287Z,96104.09
2023-03-26T21:50:35.803Z,96102.78
2023-03-26T21:53:39.054Z,96100.18
2023-03-26T21:56:50.619Z,96097.89
2023-03-26T22:00:15.388Z,96106.26
2023-03-26T22:03:28.718Z,96107.40
2023-03-26T22:06:43.065Z,96107.48
2023-03-26T22:09:46.675Z,96101.59
2023-03-26T22:12:50.426Z,96099.67
2023-03-26T22:15:53.785Z,96095.43
2023-03-26T22:18:56.882Z,96088.71
2023-03-26T22:22:00.279Z,96083.86
2023-03-26T22:25:03.334Z,96083.67
2023-03-26T22:28:06.156Z,96081.33
2023-03-26T22:31:09.447Z,96073.20
2023-03-26T22:34:12.464Z,96065.39
2023-03-26T22:37:16.300Z,96058.56
2023-03-26T22:40:19.337Z,96055.91
2023-03-26T22:43:28.017Z,96056.31
2023-03-26T22:46:35.905Z,96055.16
2023-03-26T22:49:40.093Z,96057.27
2023-03-26T22:52:42.943Z,96052.79
2023-03-26T22:55:45.789Z,96057.73
2023-03-26T22:58:48.929Z,96056.64
2023-03-26T23:01:52.708Z,96054.11
2023-03-26T23:04:55.796Z,96051.14
2023-03-26T23:07:58.667Z,96045.83
2023-03-26T23:11:02.322Z,96041.37
2023-03-26T23:14:05.236Z,96043.08
2023-03-26T23:17:14.604Z,96037.16
2023-03-26T23:20:18.112Z,96034.08
2023-03-26T23:23:24.170Z,96032.19
2023-03-26T23:26:35.008Z,96030.35
2023-03-26T23:29:40.708Z,96029.65
2023-03-26T23:32:44.103Z,96032.77
2023-03-26T23:35:49.383Z,96030.44
2023-03-26T23:38:53.704Z,96032.10
2023-03-26T23:41:56.507Z,96029.75
2023-03-26T23:44:59.350Z,96037.60
2023-03-26T23:48:02.634Z,96041.35
2023-03-26T23:51:06.933Z,96040.42
2023-03-26T23:54:11.732Z,96042.54
2023-03-26T23:57:14.557Z,96047.94
